Time;durP1;ratioP1;P1;durP2;ratioP2;P2;SDS_P1;SDS_P2;PMS_P1;PMS_P2;Temp;Humidity;BMP_temperature;BMP_pressure;BME280_temperature;BME280_humidity;BME280_pressure;Samples;Min_cycle;Max_cycle;Signal;HPM_P1;HPM_P2
2022/04/10 00:01:31;;;;;;;;;;;;;;;-144.19;100.00;77949.47;5051500;28;19936;-84
2022/04/10 00:03:57;;;;;;;;;;;;;;;-144.19;100.00;77945.53;5049440;28;19929;-85
2022/04/10 00:06:24;;;;;;;;;;;;;;;-144.19;100.00;77951.44;5052034;28;19925;-85
2022/04/10 00:08:50;;;;;;;;;;;;;;;-144.19;100.00;77943.56;5050397;28;19925;-84
2022/04/10 00:11:17;;;;;;;;;;;;;;;-144.19;100.00;77945.53;5050461;28;19925;-84
2022/04/10 00:13:43;;;;;;;;;;;;;;;-144.19;100.00;77931.75;5050074;28;19932;-84
2022/04/10 00:16:10;;;;;;;;;;;;;;;-144.19;100.00;77937.66;5051004;28;19937;-85
2022/04/10 00:18:37;;;;;;;;;;;;;;;-144.19;100.00;77937.66;5033279;28;20020;-84
2022/04/10 00:21:04;;;;;;;;;;;;;;;-144.19;100.00;77947.50;5050447;28;19924;-86
2022/04/10 00:23:31;;;;;;;;;;;;;;;-144.19;100.00;77965.22;5032434;28;19935;-87
2022/04/10 00:25:57;;;;;;;;;;;;;;;-144.19;100.00;77941.59;5033191;28;20349;-85
2022/04/10 00:28:23;;;;;;;;;;;;;;;-144.19;100.00;77935.69;5050585;28;19935;-85
2022/04/10 00:30:50;;;;;;;;;;;;;;;-144.19;100.00;77961.28;5049957;28;19999;-84
2022/04/10 00:33:17;;;;;;;;;;;;;;;-144.19;100.00;77945.53;5046089;28;19925;-85
2022/04/10 00:35:43;;;;;;;;;;;;;;;-144.19;100.00;77971.13;5050701;28;20310;-84
2022/04/10 00:38:09;;;;;;;;;;;;;;;-144.19;100.00;77988.84;5050591;28;19925;-84
2022/04/10 00:40:36;;;;;;;;;;;;;;;-144.19;100.00;77977.03;5032578;28;19925;-85
2022/04/10 00:43:02;;;;;;;;;;;;;;;-144.19;100.00;77982.94;5061899;23;19935;-90
2022/04/10 00:45:28;;;;;;;;;;;;;;;-144.19;100.00;77977.03;5069170;28;19930;-89
2022/04/10 00:47:55;;;;;;;;;;;;;;;-144.19;100.00;77973.09;5069808;28;20276;-91
2022/04/10 00:50:21;;;;;;;;;;;;;;;-144.19;100.00;77986.88;5069004;28;19925;-90
2022/04/10 00:52:48;;;;;;;;;;;;;;;-144.19;100.00;77973.09;5042993;28;19925;-91
2022/04/10 00:55:15;;;;;;;;;;;;;;;-144.19;100.00;77975.06;5051270;28;19932;-89
2022/04/10 00:57:42;;;;;;;;;;;;;;;-144.19;100.00;77990.81;5040623;28;20404;-91
2022/04/10 01:00:10;;;;;;;;;;;;;;;-144.19;100.00;77980.97;5072762;28;19928;-89
2022/04/10 01:02:37;;;;;;;;;;;;;;;-144.19;100.00;77988.84;5074502;28;19924;-90
2022/04/10 01:05:04;;;;;;;;;;;;;;;-144.19;100.00;78000.66;5073709;28;19947;-88
2022/04/10 01:07:30;;;;;;;;;;;;;;;-144.19;100.00;78004.59;5074661;28;19949;-90
2022/04/10 01:09:57;;;;;;;;;;;;;;;-144.19;100.00;77988.84;5073311;28;19947;-88
2022/04/10 01:12:23;;;;;;;;;;;;;;;-144.19;100.00;78004.59;5072509;28;20301;-91
2022/04/10 01:14:50;;;;;;;;;;;;;;;-144.19;100.00;77994.75;5072928;28;19928;-91
2022/04/10 01:17:17;;;;;;;;;;;;;;;-144.19;100.00;77996.72;5073269;28;19999;-92
2022/04/10 01:19:43;;;;;;;;;;;;;;;-144.19;100.00;78000.66;5073067;28;20378;-89
2022/04/10 01:22:12;;;;;;;;;;;;;;;-144.19;100.00;77988.84;5072858;28;19935;-91
2022/04/10 01:24:39;;;;;;;;;;;;;;;-144.19;100.00;78000.66;5073218;28;19928;-91
2022/04/10 01:27:06;;;;;;;;;;;;;;;-144.19;100.00;78000.66;5073991;28;20398;-87
2022/04/10 01:29:33;;;;;;;;;;;;;;;-144.19;100.00;77988.84;5075313;28;19925;-90
2022/04/10 01:31:59;;;;;;;;;;;;;;;-144.19;100.00;77998.69;5073099;28;19959;-92
2022/04/10 01:34:25;;;;;;;;;;;;;;;-144.19;100.00;78024.31;5066219;28;19932;-90
2022/04/10 01:36:52;;;;;;;;;;;;;;;-144.19;100.00;78000.66;5053512;28;19929;-90
2022/04/10 01:39:19;;;;;;;;;;;;;;;-144.19;100.00;78006.56;5053361;28;19925;-89
2022/04/10 01:41:46;;;;;;;;;;;;;;;-144.19;100.00;78024.31;5053288;28;20278;-90
2022/04/10 01:44:13;;;;;;;;;;;;;;;-144.19;100.00;77996.72;5052966;28;20020;-91
2022/04/10 01:46:39;;;;;;;;;;;;;;;-144.19;100.00;78028.22;5053092;28;20004;-89
2022/04/10 01:49:06;;;;;;;;;;;;;;;-144.19;100.00;78038.09;5053344;28;19925;-90
2022/04/10 01:51:33;;;;;;;;;;;;;;;-144.19;100.00;78024.31;5054711;28;19932;-90
2022/04/10 01:53:59;;;;;;;;;;;;;;;-144.19;100.00;78034.16;5052576;28;19925;-88
2022/04/10 01:56:25;;;;;;;;;;;;;;;-144.19;100.00;78020.34;5052795;28;19936;-91
2022/04/10 01:58:52;;;;;;;;;;;;;;;-144.19;100.00;78040.06;5067457;28;20390;-90
2022/04/10 02:01:19;;;;;;;;;;;;;;;-144.19;100.00;78047.94;5072155;28;20011;-88
2022/04/10 02:03:46;;;;;;;;;;;;;;;-144.19;100.00;78028.22;5072160;28;20397;-92
2022/04/10 02:06:15;;;;;;;;;;;;;;;-144.19;100.00;78045.97;5055491;28;20009;-88
2022/04/10 02:08:42;;;;;;;;;;;;;;;-144.19;100.00;78044.00;5074161;28;19924;-90
2022/04/10 02:11:10;;;;;;;;;;;;;;;-144.19;100.00;78051.88;5072596;28;20397;-91
2022/04/10 02:13:36;;;;;;;;;;;;;;;-144.19;100.00;78077.47;5071643;28;20371;-88
2022/04/10 02:16:03;;;;;;;;;;;;;;;-144.19;100.00;78069.59;5072801;28;19931;-91
2022/04/10 02:18:29;;;;;;;;;;;;;;;-144.19;100.00;78071.56;5073010;28;19924;-90
2022/04/10 02:20:55;;;;;;;;;;;;;;;-144.19;100.00;78061.72;5072627;28;20424;-90
2022/04/10 02:23:22;;;;;;;;;;;;;;;-144.19;100.00;78083.38;5072379;28;19934;-89
2022/04/10 02:25:48;;;;;;;;;;;;;;;-144.19;100.00;78087.31;5073082;28;19924;-88
2022/04/10 02:28:15;;;;;;;;;;;;;;;-144.19;100.00;78059.75;5072863;28;20302;-90
2022/04/10 02:30:41;;;;;;;;;;;;;;;-144.19;100.00;78079.44;5076784;28;19931;-92
2022/04/10 02:33:07;;;;;;;;;;;;;;;-144.19;100.00;78079.44;5069243;28;20347;-90
2022/04/10 02:35:34;;;;;;;;;;;;;;;-144.19;100.00;78081.41;5072667;28;20042;-90
2022/04/10 02:38:00;;;;;;;;;;;;;;;-144.19;100.00;78067.63;5072634;28;19931;-90
2022/04/10 02:40:29;;;;;;;;;;;;;;;-144.19;100.00;78087.31;5072573;28;19930;-91
2022/04/10 02:42:55;;;;;;;;;;;;;;;-144.19;100.00;78083.38;5071542;28;19924;-89
2022/04/10 02:45:21;;;;;;;;;;;;;;;-144.19;100.00;78079.44;5072259;28;19932;-91
2022/04/10 02:47:48;;;;;;;;;;;;;;;-144.19;100.00;78069.59;5072265;28;19928;-91
2022/04/10 02:50:14;;;;;;;;;;;;;;;-144.19;100.00;78061.72;5073817;28;19931;-91
2022/04/10 02:52:40;;;;;;;;;;;;;;;-144.19;100.00;78071.56;5071597;28;20666;-89
2022/04/10 02:55:07;;;;;;;;;;;;;;;-144.19;100.00;78087.31;5072409;28;19931;-91
2022/04/10 02:57:34;;;;;;;;;;;;;;;-144.19;100.00;78075.50;5069746;28;19968;-89
2022/04/10 03:00:03;;;;;;;;;;;;;;;-144.19;100.00;78083.38;5034957;28;19925;-91
2022/04/10 03:02:29;;;;;;;;;;;;;;;-144.19;100.00;78059.75;5052612;28;19925;-90
2022/04/10 03:04:55;;;;;;;;;;;;;;;-144.19;100.00;78075.50;5052369;28;19984;-87
2022/04/10 03:07:22;;;;;;;;;;;;;;;-144.19;100.00;78083.38;5053392;28;19935;-89
2022/04/10 03:09:48;;;;;;;;;;;;;;;-144.19;100.00;78107.00;5052917;28;20379;-90
2022/04/10 03:12:14;;;;;;;;;;;;;;;-144.19;100.00;78099.13;5052118;28;19928;-90
2022/04/10 03:14:41;;;;;;;;;;;;;;;-144.19;100.00;78103.06;5052129;28;19924;-90
2022/04/10 03:17:07;;;;;;;;;;;;;;;-144.19;100.00;78089.28;5051195;28;19931;-91
2022/04/10 03:19:33;;;;;;;;;;;;;;;-144.19;100.00;78099.13;5051810;28;20382;-90
2022/04/10 03:22:00;;;;;;;;;;;;;;;-144.19;100.00;78099.13;5050254;28;19935;-90
2022/04/10 03:24:26;;;;;;;;;;;;;;;-144.19;100.00;78116.84;5051794;28;19925;-90
2022/04/10 03:26:52;;;;;;;;;;;;;;;-144.19;100.00;78116.84;5051790;28;20365;-89
2022/04/10 03:29:19;;;;;;;;;;;;;;;-144.19;100.00;78144.41;5052809;28;20403;-87
2022/04/10 03:31:46;;;;;;;;;;;;;;;-144.19;100.00;78150.31;5050859;28;19925;-89
2022/04/10 03:34:12;;;;;;;;;;;;;;;-144.19;100.00;78122.75;5034154;28;20023;-88
2022/04/10 03:36:39;;;;;;;;;;;;;;;-144.19;100.00;78146.38;5051298;28;19929;-88
2022/04/10 03:39:05;;;;;;;;;;;;;;;-144.19;100.00;78154.25;5051037;28;20379;-89
2022/04/10 03:41:31;;;;;;;;;;;;;;;-144.19;100.00;78148.34;5051214;28;19925;-91
2022/04/10 03:43:57;;;;;;;;;;;;;;;-144.19;100.00;78154.25;5051821;28;19924;-89
2022/04/10 03:46:24;;;;;;;;;;;;;;;-144.19;100.00;78160.16;5051353;28;19947;-89
2022/04/10 03:48:50;;;;;;;;;;;;;;;-144.19;100.00;78158.19;5034326;28;19942;-90
2022/04/10 03:51:17;;;;;;;;;;;;;;;-144.19;100.00;78170.00;5050889;28;19932;-89
2022/04/10 03:53:43;;;;;;;;;;;;;;;-144.19;100.00;78171.97;5050136;28;19951;-87
2022/04/10 03:56:09;;;;;;;;;;;;;;;-144.19;100.00;78162.13;5051948;28;20413;-86
2022/04/10 03:58:35;;;;;;;;;;;;;;;-144.19;100.00;78177.91;5050802;28;19925;-86
2022/04/10 04:01:02;;;;;;;;;;;;;;;-144.19;100.00;78170.00;5051482;28;19925;-90
2022/04/10 04:03:28;;;;;;;;;;;;;;;-144.19;100.00;78183.81;5049890;28;19936;-90
2022/04/10 04:05:55;;;;;;;;;;;;;;;-144.19;100.00;78181.84;5050689;28;19924;-88
2022/04/10 04:08:25;;;;;;;;;;;;;;;-144.19;100.00;78177.91;5051898;28;19992;-91
2022/04/10 04:10:51;;;;;;;;;;;;;;;-144.19;100.00;78173.94;5060410;28;19956;-91
2022/04/10 04:13:18;;;;;;;;;;;;;;;-144.19;100.00;78170.00;5065711;28;19969;-89
2022/04/10 04:15:45;;;;;;;;;;;;;;;-144.19;100.00;78179.88;5071918;28;19934;-88
2022/04/10 04:18:11;;;;;;;;;;;;;;;-144.19;100.00;78185.78;5070876;28;20015;-89
2022/04/10 04:20:37;;;;;;;;;;;;;;;-144.19;100.00;78173.94;5070070;28;19925;-89
2022/04/10 04:23:04;;;;;;;;;;;;;;;-144.19;100.00;78154.25;5069452;28;20362;-89
2022/04/10 04:25:31;;;;;;;;;;;;;;;-144.19;100.00;78160.16;5053504;28;19925;-88
2022/04/10 04:27:57;;;;;;;;;;;;;;;-144.19;100.00;78171.97;5070515;28;19932;-89
2022/04/10 04:30:24;;;;;;;;;;;;;;;-144.19;100.00;78166.06;5071456;28;19924;-89
2022/04/10 04:32:53;;;;;;;;;;;;;;;-144.19;100.00;78179.88;5070058;28;19925;-89
2022/04/10 04:35:19;;;;;;;;;;;;;;;-144.19;100.00;78185.78;5057546;28;19925;-87
2022/04/10 04:37:46;;;;;;;;;;;;;;;-144.19;100.00;78170.00;5051585;28;19932;-89
2022/04/10 04:40:13;;;;;;;;;;;;;;;-144.19;100.00;78166.06;5046324;28;20364;-88
2022/04/10 04:42:39;;;;;;;;;;;;;;;-144.19;100.00;78185.78;5065131;28;19931;-88
2022/04/10 04:45:06;;;;;;;;;;;;;;;-144.19;100.00;78183.81;5066906;28;19925;-90
2022/04/10 04:47:32;;;;;;;;;;;;;;;-144.19;100.00;78189.72;5049739;28;20461;-88
2022/04/10 04:49:58;;;;;;;;;;;;;;;-144.19;100.00;78197.59;5066427;28;19932;-87
2022/04/10 04:52:25;;;;;;;;;;;;;;;-144.19;100.00;78197.59;5065359;28;19925;-89
2022/04/10 04:54:51;;;;;;;;;;;;;;;-144.19;100.00;78207.44;5065614;28;19958;-88
2022/04/10 04:57:17;;;;;;;;;;;;;;;-144.19;100.00;78201.53;5066259;28;20405;-89
2022/04/10 04:59:44;;;;;;;;;;;;;;;-144.19;100.00;78217.28;5068899;28;19942;-89
2022/04/10 05:02:11;;;;;;;;;;;;;;;-144.19;100.00;78225.16;5067875;28;20378;-90
2022/04/10 05:04:37;;;;;;;;;;;;;;;-144.19;100.00;78225.16;5069248;28;20003;-90
2022/04/10 05:07:04;;;;;;;;;;;;;;;-144.19;100.00;78233.03;5052793;28;19924;-89
2022/04/10 05:09:30;;;;;;;;;;;;;;;-144.19;100.00;78229.09;5070441;28;19952;-89
2022/04/10 05:11:56;;;;;;;;;;;;;;;-144.19;100.00;78235.00;5068371;28;19924;-88
2022/04/10 05:14:23;;;;;;;;;;;;;;;-144.19;100.00;78209.41;5068850;28;20399;-89
2022/04/10 05:16:49;;;;;;;;;;;;;;;-144.19;100.00;78213.34;5069001;28;19931;-88
2022/04/10 05:19:15;;;;;;;;;;;;;;;-144.19;100.00;78191.69;5068969;28;19925;-88
2022/04/10 05:21:42;;;;;;;;;;;;;;;-144.19;100.00;78199.56;5067611;28;19931;-89
2022/04/10 05:24:08;;;;;;;;;;;;;;;-144.19;100.00;78189.72;5068194;28;19924;-88
2022/04/10 05:26:35;;;;;;;;;;;;;;;-144.19;100.00;78170.00;5051697;28;19931;-89
2022/04/10 05:29:01;;;;;;;;;;;;;;;-144.19;100.00;78162.13;5068958;28;19928;-90
2022/04/10 05:31:27;;;;;;;;;;;;;;;-144.19;100.00;78170.00;5067011;28;19931;-89
2022/04/10 05:33:54;;;;;;;;;;;;;;;-144.19;100.00;78160.16;5066462;28;20405;-88
2022/04/10 05:36:21;;;;;;;;;;;;;;;-144.19;100.00;78166.06;5049546;28;19931;-87
2022/04/10 05:38:47;;;;;;;;;;;;;;;-144.19;100.00;78156.22;5049009;28;19932;-88
2022/04/10 05:41:13;;;;;;;;;;;;;;;-144.19;100.00;78166.06;5050264;28;20023;-90
2022/04/10 05:43:39;;;;;;;;;;;;;;;-144.19;100.00;78162.13;5052745;28;19925;-88
2022/04/10 05:46:06;;;;;;;;;;;;;;;-144.19;100.00;78166.06;5052609;28;19932;-88
2022/04/10 05:48:32;;;;;;;;;;;;;;;-144.19;100.00;78154.25;5052163;28;20128;-88
2022/04/10 05:50:58;;;;;;;;;;;;;;;-144.19;100.00;78164.09;5052013;28;20413;-88
2022/04/10 05:53:25;;;;;;;;;;;;;;;-144.19;100.00;78173.94;5052697;28;19929;-88
2022/04/10 05:55:51;;;;;;;;;;;;;;;-144.19;100.00;78183.81;5053190;28;19925;-87
2022/04/10 05:58:17;;;;;;;;;;;;;;;-144.19;100.00;78166.06;5052548;28;19928;-88
2022/04/10 06:00:43;;;;;;;;;;;;;;;-144.19;100.00;78138.50;5053134;28;19924;-87
2022/04/10 06:03:10;;;;;;;;;;;;;;;-144.19;100.00;78150.31;5051757;28;19925;-88
2022/04/10 06:05:36;;;;;;;;;;;;;;;-144.19;100.00;78144.41;5052395;28;19973;-88
2022/04/10 06:08:03;;;;;;;;;;;;;;;-144.19;100.00;78136.53;5049210;28;19929;-91
2022/04/10 06:10:29;;;;;;;;;;;;;;;-144.19;100.00;78166.06;5052692;28;20394;-88
2022/04/10 06:13:05;;;;;;;;;;;;;;;-144.19;100.00;78170.00;5062380;28;19936;-89
2022/04/10 06:15:38;;;;;;;;;;;;;;;-144.19;100.00;78197.59;5055902;28;20123;-92
2022/04/10 06:18:05;;;;;;;;;;;;;;;-144.19;100.00;78189.72;5072052;28;19936;-88
2022/04/10 06:20:34;;;;;;;;;;;;;;;-144.19;100.00;78197.59;5055064;28;19925;-89
2022/04/10 06:23:03;;;;;;;;;;;;;;;-144.19;100.00;78205.47;5070914;28;19928;-89
2022/04/10 06:25:30;;;;;;;;;;;;;;;-144.19;100.00;78195.63;5071348;28;19932;-89
2022/04/10 06:28:02;;;;;;;;;;;;;;;-144.19;100.00;78209.41;5053956;28;19925;-89
2022/04/10 06:30:32;;;;;;;;;;;;;;;-144.19;100.00;78217.28;5054478;28;19924;-89
2022/04/10 06:32:59;;;;;;;;;;;;;;;-144.19;100.00;78227.13;5071087;28;19935;-90
2022/04/10 06:35:26;;;;;;;;;;;;;;;-144.19;100.00;78207.44;5064721;28;19974;-89
2022/04/10 06:37:53;;;;;;;;;;;;;;;-144.19;100.00;78191.69;5070207;28;19930;-88
2022/04/10 06:40:21;;;;;;;;;;;;;;;-144.19;100.00;78187.75;5054868;28;20076;-89
2022/04/10 06:42:48;;;;;;;;;;;;;;;-144.19;100.00;78191.69;5080462;22;19975;-82
2022/04/10 06:45:14;;;;;;;;;;;;;;;-144.19;100.00;78201.53;5052979;28;19932;-84
2022/04/10 06:47:41;;;;;;;;;;;;;;;-144.19;100.00;78191.69;5053008;28;19924;-83
2022/04/10 06:50:09;;;;;;;;;;;;;;;-144.19;100.00;78175.94;5052202;28;20310;-84
2022/04/10 06:52:36;;;;;;;;;;;;;;;-144.19;100.00;78166.06;5051604;28;19925;-84
2022/04/10 06:55:02;;;;;;;;;;;;;;;-144.19;100.00;78154.25;5035338;28;19925;-82
2022/04/10 06:57:28;;;;;;;;;;;;;;;-144.19;100.00;78132.59;5035695;28;20399;-82
2022/04/10 06:59:55;;;;;;;;;;;;;;;-144.19;100.00;78095.19;5035216;28;19936;-84
2022/04/10 07:02:21;;;;;;;;;;;;;;;-144.19;100.00;78091.25;5052089;28;19936;-81
2022/04/10 07:04:47;;;;;;;;;;;;;;;-144.19;100.00;78071.56;5035195;28;20055;-81
2022/04/10 07:07:14;;;;;;;;;;;;;;;-144.19;100.00;78040.06;5052989;28;19925;-84
2022/04/10 07:09:40;;;;;;;;;;;;;;;-144.19;100.00;78051.88;5046765;28;19956;-84
2022/04/10 07:12:06;;;;;;;;;;;;;;;-144.19;100.00;78032.19;5026487;28;19925;-85
2022/04/10 07:14:33;;;;;;;;;;;;;;;-144.19;100.00;78008.53;5052218;28;19932;-84
2022/04/10 07:16:59;;;;;;;;;;;;;;;-144.19;100.00;77992.78;5052025;28;19925;-84
2022/04/10 07:19:25;;;;;;;;;;;;;;;-144.19;100.00;77980.97;5052029;28;19964;-82
2022/04/10 07:24:37;;;;;;;;;;;;;;;-144.19;100.00;77973.09;5049530;28;19932;-85
2022/04/10 07:27:03;;;;;;;;;;;;;;;-144.19;100.00;77941.59;5033407;28;19951;-85
2022/04/10 07:29:30;;;;;;;;;;;;;;;-144.19;100.00;77941.59;5034970;28;19931;-83
2022/04/10 07:31:56;;;;;;;;;;;;;;;-144.19;100.00;77941.59;5031985;28;20397;-83
2022/04/10 07:34:22;;;;;;;;;;;;;;;-144.19;100.00;77961.28;5033515;28;19925;-84
2022/04/10 07:36:49;;;;;;;;;;;;;;;-144.19;100.00;77933.72;5048691;28;20302;-83
2022/04/10 07:39:15;;;;;;;;;;;;;;;-144.19;100.00;77947.50;5051789;28;19935;-84
2022/04/10 07:41:41;;;;;;;;;;;;;;;-144.19;100.00;77945.53;5051822;28;20386;-83
2022/04/10 07:44:07;;;;;;;;;;;;;;;-144.19;100.00;77959.31;5066367;28;19929;-85
2022/04/10 07:49:19;;;;;;;;;;;;;;;-144.19;100.00;77929.78;5052305;28;19932;-86
2022/04/10 07:51:45;;;;;;;;;;;;;;;-144.19;100.00;77929.78;5031169;28;19928;-84
2022/04/10 07:54:11;;;;;;;;;;;;;;;-144.19;100.00;77866.78;5033148;28;19995;-86
2022/04/10 07:56:38;;;;;;;;;;;;;;;-144.19;100.00;77900.25;5051528;28;19932;-82
2022/04/10 07:59:04;;;;;;;;;;;;;;;-144.19;100.00;77896.31;5033931;28;20012;-84
2022/04/10 08:01:31;;;;;;;;;;;;;;;-144.19;100.00;77933.72;5033234;28;19925;-83
2022/04/10 08:03:57;;;;;;;;;;;;;;;-144.19;100.00;77910.09;5032434;28;20548;-82
2022/04/10 08:06:23;;;;;;;;;;;;;;;-144.19;100.00;77898.28;5033599;28;19944;-85
2022/04/10 08:08:50;;;;;;;;;;;;;;;-144.19;100.00;77906.16;5050335;28;19931;-83
2022/04/10 08:11:16;;;;;;;;;;;;;;;-144.19;100.00;77921.91;5033308;28;19925;-83
2022/04/10 08:13:42;;;;;;;;;;;;;;;-144.19;100.00;77886.47;5066222;28;20006;-85
2022/04/10 08:16:08;;;;;;;;;;;;;;;-144.19;100.00;77851.03;5061587;28;19928;-81
2022/04/10 08:18:35;;;;;;;;;;;;;;;-144.19;100.00;77894.34;5066616;28;19929;-81
2022/04/10 08:21:01;;;;;;;;;;;;;;;-144.19;100.00;77831.31;5033136;28;19931;-85
2022/04/10 08:23:28;;;;;;;;;;;;;;;-144.19;100.00;77831.31;5049406;28;20303;-83
2022/04/10 08:25:54;;;;;;;;;;;;;;;-144.19;100.00;77858.91;5051866;28;19929;-84
2022/04/10 08:28:20;;;;;;;;;;;;;;;-144.19;100.00;77851.03;5025493;28;20402;-84
2022/04/10 08:30:47;;;;;;;;;;;;;;;-144.19;100.00;77851.03;5039444;28;19925;-82
2022/04/10 08:33:13;;;;;;;;;;;;;;;-144.19;100.00;77827.38;5050476;28;20354;-83
2022/04/10 08:35:39;;;;;;;;;;;;;;;-144.19;100.00;77819.50;5053214;28;19925;-83
2022/04/10 08:38:06;;;;;;;;;;;;;;;-144.19;100.00;77799.81;5052077;28;20039;-84
2022/04/10 08:40:32;;;;;;;;;;;;;;;-144.19;100.00;77823.44;5033703;28;19924;-83
2022/04/10 08:43:00;;;;;;;;;;;;;;;-144.19;100.00;77788.00;5050702;28;19932;-81
2022/04/10 08:45:27;;;;;;;;;;;;;;;-144.19;100.00;77776.19;5049088;28;20028;-83
2022/04/10 08:47:54;;;;;;;;;;;;;;;-144.19;100.00;77740.75;5050951;28;19929;-83
2022/04/10 08:50:20;;;;;;;;;;;;;;;-144.19;100.00;77734.84;5030264;28;19940;-83
2022/04/10 08:52:46;;;;;;;;;;;;;;;-144.19;100.00;77709.25;5031672;28;20023;-84
2022/04/10 08:55:13;;;;;;;;;;;;;;;-144.19;100.00;77721.06;5031943;28;20469;-82
2022/04/10 08:57:39;;;;;;;;;;;;;;;-144.19;100.00;77748.63;5033009;28;19925;-83
2022/04/10 09:00:06;;;;;;;;;;;;;;;-144.19;100.00;77675.78;5047631;28;19945;-83
2022/04/10 09:02:44;;;;;;;;;;;;;;;-144.19;100.00;77665.94;5032105;28;19925;-84
2022/04/10 09:05:15;;;;;;;;;;;;;;;-144.19;100.00;77732.88;5030971;28;20485;-88
2022/04/10 09:08:01;;;;;;;;;;;;;;;-144.19;100.00;77717.13;5032467;28;19937;-83
2022/04/10 09:10:27;;;;;;;;;;;;;;;-144.19;100.00;77758.47;5048759;28;19924;-84
2022/04/10 09:12:54;;;;;;;;;;;;;;;-144.19;100.00;77703.34;5032105;28;19929;-85
2022/04/10 09:15:30;;;;;;;;;;;;;;;-144.19;100.00;77728.94;5049847;28;19932;-86
2022/04/10 09:17:56;;;;;;;;;;;;;;;-144.19;100.00;77768.31;5053634;28;19951;-84
2022/04/10 09:20:23;;;;;;;;;;;;;;;-144.19;100.00;77827.38;5035493;28;19929;-82
2022/04/10 09:22:49;;;;;;;;;;;;;;;-144.19;100.00;77906.16;5053578;28;19932;-85
2022/04/10 09:25:16;;;;;;;;;;;;;;;-144.19;100.00;77898.28;5052909;28;19925;-82
2022/04/10 09:27:47;;;;;;;;;;;;;;;-144.19;100.00;77910.09;5053122;28;20371;-83
2022/04/10 09:30:17;;;;;;;;;;;;;;;-144.19;100.00;77888.44;5034963;28;19940;-82
2022/04/10 09:32:47;;;;;;;;;;;;;;;-144.19;100.00;77833.28;5052914;28;20045;-86
2022/04/10 09:35:15;;;;;;;;;;;;;;;-144.19;100.00;77778.16;5055869;28;20405;-83
2022/04/10 09:37:43;;;;;;;;;;;;;;;-144.19;100.00;77795.88;5050174;28;19935;-82
2022/04/10 09:40:29;;;;;;;;;;;;;;;-144.19;100.00;77754.53;5052857;28;19924;-80
2022/04/10 09:43:05;;;;;;;;;;;;;;;-144.19;100.00;77701.38;5051786;28;19928;-81
2022/04/10 09:45:36;;;;;;;;;;;;;;;-144.19;100.00;77665.94;5061205;28;19925;-82
2022/04/10 09:48:19;;;;;;;;;;;;;;;-144.19;100.00;77713.19;5053511;28;19925;-85
2022/04/10 09:50:47;;;;;;;;;;;;;;;-144.19;100.00;77746.66;5034844;28;19929;-84
2022/04/10 09:53:13;;;;;;;;;;;;;;;-144.19;100.00;77697.44;5030268;28;19947;-80
2022/04/10 09:55:40;;;;;;;;;;;;;;;-144.19;100.00;77618.69;5057721;28;19939;-83
2022/04/10 09:58:09;;;;;;;;;;;;;;;-144.19;100.00;77640.34;5060675;28;19932;-84
2022/04/10 10:00:45;;;;;;;;;;;;;;;-144.19;100.00;77654.13;5048085;28;19932;-85
2022/04/10 10:03:11;;;;;;;;;;;;;;;-144.19;100.00;77595.06;5067701;28;19929;-83
2022/04/10 10:05:38;;;;;;;;;;;;;;;-144.19;100.00;77559.63;5065041;28;19924;-81
2022/04/10 10:08:05;;;;;;;;;;;;;;;-144.19;100.00;77535.97;5055785;28;19948;-83
2022/04/10 10:10:32;;;;;;;;;;;;;;;-144.19;100.00;77524.16;5036220;28;19924;-82
2022/04/10 10:13:00;;;;;;;;;;;;;;;-144.19;100.00;77583.25;5052088;28;19947;-82
2022/04/10 10:15:32;;;;;;;;;;;;;;;-144.19;100.00;77526.13;5055066;28;19932;-83
2022/04/10 10:18:00;;;;;;;;;;;;;;;-144.19;100.00;77583.25;5048344;28;19925;-87
2022/04/10 10:20:27;;;;;;;;;;;;;;;-144.19;100.00;77583.25;5033487;28;19932;-83
2022/04/10 10:22:54;;;;;;;;;;;;;;;-144.19;100.00;77587.19;5054941;28;20383;-82
2022/04/10 10:25:20;;;;;;;;;;;;;;;-144.19;100.00;77583.25;5055071;28;19935;-80
2022/04/10 10:28:05;;;;;;;;;;;;;;;-144.19;100.00;77535.97;5053082;28;19936;-81
2022/04/10 10:30:51;;;;;;;;;;;;;;;-144.19;100.00;77522.19;5054299;28;19931;-83
2022/04/10 10:33:20;;;;;;;;;;;;;;;-144.19;100.00;77417.84;5053077;28;19928;-82
2022/04/10 10:36:07;;;;;;;;;;;;;;;-144.19;100.00;77417.84;5054499;28;20118;-82
2022/04/10 10:38:33;;;;;;;;;;;;;;;-144.19;100.00;77441.47;5055212;28;20395;-83
2022/04/10 10:41:09;;;;;;;;;;;;;;;-144.19;100.00;77471.00;5037054;28;19925;-84
2022/04/10 10:43:35;;;;;;;;;;;;;;;-144.19;100.00;77386.34;5054188;28;19951;-83
2022/04/10 10:46:02;;;;;;;;;;;;;;;-144.19;100.00;77287.91;5054621;28;19932;-83
2022/04/10 10:48:50;;;;;;;;;;;;;;;-144.19;100.00;77213.09;5055640;28;19966;-84
2022/04/10 10:51:18;;;;;;;;;;;;;;;-144.19;95.05;77409.97;5053756;28;20040;-84
2022/04/10 10:53:45;;;;;;;;;;;;;;;-144.19;100.00;77268.22;5053646;28;19925;-82
2022/04/10 10:56:12;;;;;;;;;;;;;;;-144.19;91.80;77453.28;5036852;28;19924;-85
2022/04/10 10:59:18;;;;;;;;;;;;;;;-144.19;94.56;77461.16;5054167;28;19935;-84
2022/04/10 11:01:50;;;;;;;;;;;;;;;-144.19;100.00;77488.72;5038081;28;20406;-87
2022/04/10 11:04:19;;;;;;;;;;;;;;;-144.19;100.00;77524.16;5039202;28;20019;-85
2022/04/10 11:06:47;;;;;;;;;;;;;;;-144.19;100.00;77510.38;5034143;28;19932;-86
2022/04/10 11:09:23;;;;;;;;;;;;;;;-144.19;100.00;77488.72;5036179;28;19931;-81
2022/04/10 11:11:49;;;;;;;;;;;;;;;-144.19;99.35;77343.03;5037732;28;19932;-82
2022/04/10 11:14:39;;;;;;;;;;;;;;;-144.19;79.79;77285.94;5036072;28;19931;-82
2022/04/10 11:17:28;;;;;;;;;;;;;;;-144.19;78.32;77319.41;5052259;28;20251;-82
2022/04/10 11:20:00;;;;;;;;;;;;;;;-144.19;76.72;77327.28;5043195;28;19925;-86
2022/04/10 11:22:31;;;;;;;;;;;;;;;-144.19;77.89;77335.16;5033231;28;19929;-82
2022/04/10 11:24:58;;;;;;;;;;;;;;;-144.19;76.56;77254.44;5034645;28;20390;-86
2022/04/10 11:27:42;;;;;;;;;;;;;;;-144.19;76.71;77283.97;5051919;28;20395;-82
2022/04/10 11:30:09;;;;;;;;;;;;;;;-144.19;83.55;77366.66;5032938;28;19928;-83
2022/04/10 11:32:40;;;;;;;;;;;;;;;-144.19;90.47;77421.78;5032484;28;19929;-82
2022/04/10 11:35:12;;;;;;;;;;;;;;;-144.19;85.89;77431.63;5052657;28;20406;-85
2022/04/10 11:37:39;;;;;;;;;;;;;;;-144.19;84.30;77492.66;5035286;28;19932;-82
2022/04/10 11:40:10;;;;;;;;;;;;;;;-144.19;83.52;77510.38;5035513;28;19929;-84
2022/04/10 11:42:36;;;;;;;;;;;;;;;-144.19;82.60;77457.22;5034955;28;20387;-87
2022/04/10 11:45:03;;;;;;;;;;;;;;;-144.19;82.67;77352.88;5052751;28;19925;-87
2022/04/10 11:47:29;;;;;;;;;;;;;;;-144.19;76.52;77283.97;5031962;28;19932;-85
2022/04/10 11:49:56;;;;;;;;;;;;;;;-144.19;74.49;77252.47;5051100;28;20346;-85
2022/04/10 11:52:23;;;;;;;;;;;;;;;-144.19;75.45;77213.09;5050323;28;19972;-84
2022/04/10 11:54:49;;;;;;;;;;;;;;;-144.19;73.14;77311.53;5044230;28;19947;-84
2022/04/10 11:57:16;;;;;;;;;;;;;;;-144.19;75.05;77187.50;5034755;28;19935;-84
2022/04/10 11:59:43;;;;;;;;;;;;;;;-144.19;75.84;77346.97;5050737;28;20003;-85
2022/04/10 12:02:13;;;;;;;;;;;;;;;-144.19;75.92;77417.84;5051434;28;19931;-83
2022/04/10 12:04:40;;;;;;;;;;;;;;;-144.19;87.77;77421.78;5052582;28;19929;-81
2022/04/10 12:07:17;;;;;;;;;;;;;;;-144.19;100.00;77512.34;5035098;28;19931;-85
2022/04/10 12:09:44;;;;;;;;;;;;;;;-144.19;100.00;77595.06;5051376;28;19929;-82
2022/04/10 12:12:11;;;;;;;;;;;;;;;-144.19;100.00;77543.84;5033759;28;19929;-83
2022/04/10 12:14:38;;;;;;;;;;;;;;;-144.19;100.00;77557.63;5032908;28;19935;-84
2022/04/10 12:17:17;;;;;;;;;;;;;;;-144.19;100.00;77500.53;5052864;28;20303;-83
2022/04/10 12:19:43;;;;;;;;;;;;;;;-144.19;100.00;77457.22;5052786;28;20390;-84
2022/04/10 12:22:10;;;;;;;;;;;;;;;-144.19;100.00;77352.88;5033898;28;19935;-83
2022/04/10 12:24:44;;;;;;;;;;;;;;;-144.19;100.00;77425.72;5052661;28;19925;-83
2022/04/10 12:27:10;;;;;;;;;;;;;;;-144.19;100.00;77323.34;5052789;28;20011;-81